createdAt,value
2023-04-15T00:01:00.361Z,13.23
2023-04-15T00:03:28.668Z,15.82
2023-04-15T00:05:55.515Z,12.70
2023-04-15T00:08:22.272Z,13.43
2023-04-15T00:10:49.321Z,13.32
2023-04-15T00:13:16.626Z,13.18
2023-04-15T00:15:43.449Z,12.25
2023-04-15T00:18:10.227Z,12.82
2023-04-15T00:20:37.214Z,12.52
2023-04-15T00:23:04.372Z,12.27
2023-04-15T00:25:31.272Z,12.05
2023-04-15T00:27:58.360Z,15.50
2023-04-15T00:30:26.645Z,13.38
2023-04-15T00:32:53.955Z,11.15
2023-04-15T00:35:22.543Z,10.52
2023-04-15T00:37:51.496Z,12.35
2023-04-15T00:40:19.826Z,14.45
2023-04-15T00:42:46.650Z,11.68
2023-04-15T00:45:14.117Z,12.30
2023-04-15T00:47:44.762Z,14.73
2023-04-15T00:50:15.892Z,17.33
2023-04-15T00:52:45.088Z,10.02
2023-04-15T00:55:11.863Z,15.20
2023-04-15T00:57:39.951Z,14.25
2023-04-15T01:00:11.657Z,12.93
2023-04-15T01:02:39.308Z,14.68
2023-04-15T01:05:06.166Z,18.25
2023-04-15T01:07:33.121Z,16.23
2023-04-15T01:09:59.920Z,12.52
2023-04-15T01:12:27.364Z,19.35
2023-04-15T01:14:55.126Z,14.38
2023-04-15T01:17:21.848Z,14.18
2023-04-15T01:19:48.783Z,14.45
2023-04-15T01:22:16.583Z,14.15
2023-04-15T01:24:52.325Z,12.68
2023-04-15T01:27:19.456Z,11.23
2023-04-15T01:29:46.480Z,10.35
2023-04-15T01:32:13.097Z,15.00
2023-04-15T01:34:39.782Z,13.55
2023-04-15T01:37:09.366Z,16.02
2023-04-15T01:39:36.210Z,12.25
2023-04-15T01:42:03.361Z,12.23
2023-04-15T01:44:31.205Z,16.40
2023-04-15T01:46:58.661Z,14.65
2023-04-15T01:49:27.728Z,15.70
2023-04-15T01:51:54.912Z,15.05
2023-04-15T01:54:21.571Z,13.20
2023-04-15T01:56:48.235Z,15.18
2023-04-15T01:59:14.930Z,13.27
2023-04-15T02:01:42.597Z,17.38
2023-04-15T02:04:16.469Z,12.38
2023-04-15T02:06:43.923Z,11.35
2023-04-15T02:09:12.341Z,12.35
2023-04-15T02:11:39.259Z,15.10
2023-04-15T02:14:06.394Z,14.63
2023-04-15T02:16:33.827Z,14.73
2023-04-15T02:19:01.079Z,14.18
2023-04-15T02:21:28.012Z,13.93
2023-04-15T02:23:54.624Z,15.82
2023-04-15T02:26:22.354Z,16.35
2023-04-15T02:28:51.517Z,14.30
2023-04-15T02:31:18.543Z,15.70
2023-04-15T02:33:45.765Z,12.10
2023-04-15T02:36:12.905Z,13.68
2023-04-15T02:38:42.436Z,17.38
2023-04-15T02:41:10.595Z,15.05
2023-04-15T02:43:40.027Z,13.82
2023-04-15T02:46:08.226Z,14.73
2023-04-15T02:48:34.919Z,13.80
2023-04-15T02:51:22.688Z,16.00
2023-04-15T02:53:49.882Z,16.17
2023-04-15T02:56:19.654Z,16.67
2023-04-15T02:58:47.006Z,15.48
2023-04-15T03:01:13.900Z,14.68
2023-04-15T03:03:41.788Z,14.65
2023-04-15T03:06:09.067Z,17.90
2023-04-15T03:08:36.505Z,15.15
2023-04-15T03:11:03.538Z,19.75
2023-04-15T03:13:30.473Z,19.13
2023-04-15T03:15:59.102Z,16.85
2023-04-15T03:18:27.026Z,20.15
2023-04-15T03:20:53.856Z,16.08
2023-04-15T03:23:20.901Z,18.65
2023-04-15T03:25:48.774Z,19.38
2023-04-15T03:28:15.836Z,20.83
2023-04-15T03:30:42.610Z,14.63
2023-04-15T03:33:09.529Z,16.15
2023-04-15T03:35:36.971Z,15.00
2023-04-15T03:38:03.763Z,19.88
2023-04-15T03:40:30.489Z,18.23
2023-04-15T03:42:57.100Z,25.58
2023-04-15T03:45:23.863Z,19.38
2023-04-15T03:47:50.642Z,20.23
2023-04-15T03:50:17.399Z,21.75
2023-04-15T03:52:44.997Z,17.05
2023-04-15T03:55:11.652Z,19.73
2023-04-15T03:57:39.253Z,19.95
2023-04-15T04:00:06.686Z,19.27
2023-04-15T04:02:38.764Z,16.25
2023-04-15T04:05:05.904Z,19.30
2023-04-15T04:07:32.530Z,17.27
2023-04-15T04:09:59.244Z,22.13
2023-04-15T04:12:25.966Z,24.30
2023-04-15T04:14:52.750Z,24.05
2023-04-15T04:17:19.629Z,23.08
2023-04-15T04:19:46.535Z,28.42
2023-04-15T04:22:13.128Z,23.88
2023-04-15T04:24:39.791Z,20.60
2023-04-15T04:27:06.458Z,23.35
2023-04-15T04:29:33.074Z,26.33
2023-04-15T04:31:59.777Z,23.48
2023-04-15T04:34:26.637Z,24.27
2023-04-15T04:36:53.304Z,22.15
2023-04-15T04:39:19.954Z,20.15
2023-04-15T04:41:46.735Z,27.35
2023-04-15T04:44:13.346Z,23.05
2023-04-15T04:46:39.990Z,22.67
2023-04-15T04:49:09.492Z,24.58
2023-04-15T04:51:36.300Z,27.42
2023-04-15T04:54:03.798Z,27.20
2023-04-15T04:56:30.796Z,24.83
2023-04-15T04:58:57.441Z,25.77
2023-04-15T05:01:24.197Z,26.83
2023-04-15T05:03:51.080Z,29.27
2023-04-15T05:06:17.776Z,27.17
2023-04-15T05:08:46.626Z,27.20
2023-04-15T05:11:13.310Z,28.65
2023-04-15T05:13:39.941Z,27.98
2023-04-15T05:16:06.690Z,27.42
2023-04-15T05:18:33.370Z,27.08
2023-04-15T05:21:00.032Z,31.75
2023-04-15T05:23:26.686Z,27.15
2023-04-15T05:25:53.389Z,30.98
2023-04-15T05:28:20.015Z,30.80
2023-04-15T05:30:46.695Z,29.92
2023-04-15T05:33:13.338Z,29.65
2023-04-15T05:35:40.016Z,27.58
2023-04-15T05:38:06.824Z,33.67
2023-04-15T05:40:33.578Z,29.73
2023-04-15T05:43:00.331Z,30.05
2023-04-15T05:45:27.400Z,34.78
2023-04-15T05:47:54.612Z,26.17
2023-04-15T05:50:21.849Z,30.50
2023-04-15T05:52:48.455Z,26.40
2023-04-15T05:55:15.080Z,26.80
2023-04-15T05:57:41.726Z,23.63
2023-04-15T06:00:08.837Z,23.40
2023-04-15T06:02:38.564Z,24.02
2023-04-15T06:05:09.828Z,26.27
2023-04-15T06:07:37.493Z,21.23
2023-04-15T06:10:05.793Z,31.67
2023-04-15T06:12:32.394Z,25.58
2023-04-15T06:15:00.106Z,25.98
2023-04-15T06:17:27.174Z,23.20
2023-04-15T06:19:55.830Z,23.90
2023-04-15T06:22:23.375Z,23.00
2023-04-15T06:24:51.247Z,25.67
2023-04-15T06:27:18.041Z,30.75
2023-04-15T06:29:44.899Z,20.55
2023-04-15T06:32:13.093Z,20.95
2023-04-15T06:34:39.817Z,20.85
2023-04-15T06:37:06.635Z,26.77
2023-04-15T06:39:33.324Z,19.23
2023-04-15T06:41:59.973Z,22.38
2023-04-15T06:44:26.704Z,19.77
2023-04-15T06:46:53.413Z,20.20
2023-04-15T06:49:20.019Z,19.73
2023-04-15T06:51:46.719Z,17.00
2023-04-15T06:54:13.422Z,17.80
2023-04-15T06:56:40.092Z,20.77
2023-04-15T06:59:06.746Z,17.67
2023-04-15T07:01:33.438Z,15.93
2023-04-15T07:04:00.379Z,20.23
2023-04-15T07:06:27.626Z,18.63
2023-04-15T07:08:55.692Z,17.15
2023-04-15T07:11:22.549Z,19.38
2023-04-15T07:13:49.251Z,17.45
2023-04-15T07:16:15.881Z,18.75
2023-04-15T07:18:43.488Z,20.50
2023-04-15T07:21:10.246Z,19.17
2023-04-15T07:23:36.882Z,19.48
2023-04-15T07:26:04.109Z,20.60
2023-04-15T07:28:30.797Z,13.65
2023-04-15T07:30:57.477Z,17.00
2023-04-15T07:33:24.170Z,13.82
2023-04-15T07:35:50.793Z,15.98
2023-04-15T07:38:17.546Z,16.88
2023-04-15T07:40:44.214Z,14.60
2023-04-15T07:43:10.986Z,16.80
2023-04-15T07:45:37.612Z,16.65
2023-04-15T07:48:04.763Z,15.95
2023-04-15T07:50:31.672Z,19.00
2023-04-15T07:52:58.522Z,15.02
2023-04-15T07:55:26.168Z,15.43
2023-04-15T07:57:53.903Z,18.58
2023-04-15T08:00:20.756Z,15.50
2023-04-15T08:02:48.370Z,12.32
2023-04-15T08:05:15.467Z,15.15
2023-04-15T08:07:42.144Z,12.25
2023-04-15T08:10:09.099Z,15.68
2023-04-15T08:12:36.008Z,11.98
2023-04-15T08:15:03.082Z,14.52
2023-04-15T08:17:29.752Z,14.43
2023-04-15T08:19:57.202Z,18.95
2023-04-15T08:22:24.149Z,12.20
2023-04-15T08:24:51.298Z,15.93
2023-04-15T08:27:18.076Z,15.27
2023-04-15T08:29:45.713Z,12.90
2023-04-15T08:32:12.370Z,15.75
2023-04-15T08:34:39.095Z,16.42
2023-04-15T08:37:06.526Z,15.18
2023-04-15T08:39:33.486Z,11.88
2023-04-15T08:42:05.708Z,10.52
2023-04-15T08:44:34.970Z,11.02
2023-04-15T08:47:02.595Z,11.35
2023-04-15T08:49:29.995Z,10.30
2023-04-15T08:51:59.329Z,13.13
2023-04-15T08:54:27.172Z,13.27
2023-04-15T08:56:54.538Z,12.85
2023-04-15T08:59:24.488Z,15.30
2023-04-15T09:01:51.886Z,13.00
2023-04-15T09:04:18.617Z,13.98
2023-04-15T09:06:45.624Z,14.18
2023-04-15T09:09:14.381Z,19.73
2023-04-15T09:11:42.928Z,13.73
2023-04-15T09:14:09.624Z,13.60
2023-04-15T09:17:01.932Z,32.00
2023-04-15T09:19:29.035Z,11.93
2023-04-15T09:21:59.058Z,17.20
2023-04-15T09:24:36.361Z,12.00
2023-04-15T09:27:03.672Z,10.73
2023-04-15T09:29:30.650Z,10.65
2023-04-15T09:31:57.252Z,10.52
2023-04-15T09:34:35.843Z,11.40
2023-04-15T09:37:03.181Z,13.43
2023-04-15T09:39:50.022Z,10.73
2023-04-15T09:42:17.665Z,11.20
2023-04-15T09:44:44.436Z,9.90
2023-04-15T09:47:27.690Z,12.23
2023-04-15T09:50:01.312Z,9.85
2023-04-15T09:52:28.897Z,12.93
2023-04-15T09:55:00.255Z,11.73
2023-04-15T09:57:38.167Z,13.57
2023-04-15T10:00:06.891Z,11.10
2023-04-15T10:02:34.659Z,12.68
2023-04-15T10:05:04.826Z,13.48
2023-04-15T10:07:32.098Z,12.57
2023-04-15T10:09:59.946Z,11.65
2023-04-15T10:12:27.242Z,9.88
2023-04-15T10:14:59.435Z,12.68
2023-04-15T10:17:31.630Z,11.55
2023-04-15T10:20:01.815Z,14.85
2023-04-15T10:22:30.681Z,12.07
2023-04-15T10:24:57.706Z,10.77
2023-04-15T10:27:24.688Z,14.18
2023-04-15T10:29:51.397Z,11.38
2023-04-15T10:32:20.014Z,13.02
2023-04-15T10:34:48.066Z,10.80
2023-04-15T10:37:21.057Z,12.90
2023-04-15T10:39:47.823Z,12.50
2023-04-15T10:42:16.417Z,11.35
2023-04-15T10:44:49.874Z,9.27
2023-04-15T10:47:21.584Z,10.02
2023-04-15T10:49:55.914Z,9.88
2023-04-15T10:52:28.021Z,8.93
2023-04-15T10:55:14.220Z,10.45
2023-04-15T10:57:41.897Z,8.30
2023-04-15T11:00:09.129Z,9.32
2023-04-15T11:02:43.629Z,9.52
2023-04-15T11:05:11.669Z,9.50
2023-04-15T11:07:44.671Z,10.30
2023-04-15T11:10:36.686Z,8.82
2023-04-15T11:13:05.488Z,9.75
2023-04-15T11:15:35.161Z,9.23
2023-04-15T11:18:26.764Z,8.55
2023-04-15T11:20:57.501Z,14.38
2023-04-15T11:23:38.678Z,10.88
2023-04-15T11:26:09.927Z,10.43
2023-04-15T11:28:38.784Z,7.40
2023-04-15T11:31:07.419Z,9.70
2023-04-15T11:33:34.214Z,11.93
2023-04-15T11:36:01.539Z,13.38
2023-04-15T11:38:28.571Z,11.95
2023-04-15T11:40:55.482Z,12.52
2023-04-15T11:43:22.995Z,8.75
2023-04-15T11:45:58.205Z,12.32
2023-04-15T11:48:27.156Z,10.43
2023-04-15T11:50:59.257Z,12.75
2023-04-15T11:53:42.585Z,9.38
2023-04-15T11:56:18.654Z,10.00
2023-04-15T11:58:46.419Z,10.80
2023-04-15T12:01:13.459Z,10.43
2023-04-15T12:03:42.495Z,10.00
2023-04-15T12:06:19.538Z,11.02
2023-04-15T12:08:55.784Z,11.20
2023-04-15T12:11:57.395Z,13.57
2023-04-15T12:14:28.970Z,8.40
2023-04-15T12:17:01.984Z,12.80
2023-04-15T12:19:35.643Z,11.43
2023-04-15T12:22:10.084Z,8.95
2023-04-15T12:24:37.854Z,13.48
2023-04-15T12:27:06.665Z,9.85
2023-04-15T12:29:35.302Z,10.98
2023-04-15T12:32:10.568Z,10.30
2023-04-15T12:34:39.385Z,10.93
2023-04-15T12:37:09.788Z,9.45
2023-04-15T12:39:41.445Z,19.00
2023-04-15T12:42:08.849Z,9.05
2023-04-15T12:44:36.464Z,13.50
2023-04-15T12:47:03.574Z,13.07
2023-04-15T12:49:31.018Z,10.32
2023-04-15T12:52:00.142Z,10.68
2023-04-15T12:54:27.230Z,10.38
2023-04-15T12:56:54.708Z,9.65
2023-04-15T12:59:21.691Z,11.20
2023-04-15T13:01:49.067Z,7.18
2023-04-15T13:04:20.180Z,9.07
2023-04-15T13:06:47.003Z,7.32
2023-04-15T13:09:16.060Z,8.38
2023-04-15T13:11:43.111Z,7.50
2023-04-15T13:14:11.328Z,9.18
2023-04-15T13:16:39.847Z,6.45
2023-04-15T13:19:06.678Z,10.00
2023-04-15T13:21:35.514Z,6.45
2023-04-15T13:24:03.618Z,8.82
2023-04-15T13:26:31.632Z,15.35
2023-04-15T13:28:58.287Z,9.90
2023-04-15T13:31:25.424Z,10.57
2023-04-15T13:33:52.097Z,7.28
2023-04-15T13:36:18.825Z,10.73
2023-04-15T13:38:45.702Z,7.95
2023-04-15T13:41:12.409Z,6.78
2023-04-15T13:43:39.079Z,6.10
2023-04-15T13:46:07.050Z,6.30
2023-04-15T13:48:34.133Z,7.80
2023-04-15T13:51:01.807Z,5.85
2023-04-15T13:53:38.140Z,5.38
2023-04-15T13:56:07.856Z,5.80
2023-04-15T13:58:34.699Z,5.32
2023-04-15T14:01:03.230Z,4.53
2023-04-15T14:03:31.786Z,6.20
2023-04-15T14:05:58.836Z,8.07
2023-04-15T14:08:25.835Z,8.05
2023-04-15T14:10:52.589Z,6.93
2023-04-15T14:13:24.558Z,7.93
2023-04-15T14:15:51.328Z,5.30
2023-04-15T14:18:18.088Z,8.18
2023-04-15T14:20:46.225Z,6.57
2023-04-15T14:23:13.053Z,7.55
2023-04-15T14:25:39.724Z,6.90
2023-04-15T14:28:06.364Z,6.55
2023-04-15T14:30:33.364Z,9.35
2023-04-15T14:33:00.431Z,8.45
2023-04-15T14:35:27.403Z,8.13
2023-04-15T14:37:54.464Z,5.50
2023-04-15T14:40:21.474Z,6.13
2023-04-15T14:42:48.382Z,8.95
2023-04-15T14:45:15.081Z,7.97
2023-04-15T14:47:42.043Z,8.68
2023-04-15T14:50:09.170Z,7.32
2023-04-15T14:52:39.086Z,5.68
2023-04-15T14:55:12.669Z,6.70
2023-04-15T14:57:40.928Z,5.13
2023-04-15T15:00:10.093Z,4.95
2023-04-15T15:02:40.128Z,4.97
2023-04-15T15:05:08.429Z,7.22
2023-04-15T15:07:37.315Z,6.97
2023-04-15T15:10:04.713Z,6.18
2023-04-15T15:12:32.037Z,6.88
2023-04-15T15:14:58.744Z,6.97
2023-04-15T15:17:25.785Z,6.40
2023-04-15T15:19:52.929Z,12.13
2023-04-15T15:22:21.359Z,7.93
2023-04-15T15:24:48.495Z,5.22
2023-04-15T15:27:15.200Z,12.32
2023-04-15T15:29:43.195Z,6.70
2023-04-15T15:32:09.885Z,6.93
2023-04-15T15:34:36.618Z,7.13
2023-04-15T15:37:03.621Z,6.85
2023-04-15T15:39:31.660Z,6.78
2023-04-15T15:41:58.362Z,10.23
2023-04-15T15:44:25.408Z,5.18
2023-04-15T15:46:52.082Z,4.60
2023-04-15T15:49:20.089Z,6.20
2023-04-15T15:51:49.945Z,8.70
2023-04-15T15:54:16.640Z,6.68
2023-04-15T15:56:43.451Z,5.50
2023-04-15T15:59:10.130Z,4.63
2023-04-15T16:01:36.881Z,5.32
2023-04-15T16:04:03.973Z,5.43
2023-04-15T16:06:34.418Z,8.02
2023-04-15T16:09:02.581Z,6.97
2023-04-15T16:11:29.933Z,8.25
2023-04-15T16:13:56.720Z,6.10
2023-04-15T16:16:24.446Z,6.53
2023-04-15T16:18:51.152Z,8.38
2023-04-15T16:21:18.188Z,9.18
2023-04-15T16:23:44.900Z,5.53
2023-04-15T16:26:13.528Z,11.63
2023-04-15T16:28:40.262Z,6.50
2023-04-15T16:31:07.056Z,8.18
2023-04-15T16:33:35.523Z,6.72
2023-04-15T16:36:02.258Z,5.35
2023-04-15T16:38:30.145Z,7.38
2023-04-15T16:41:01.406Z,7.15
2023-04-15T16:43:32.028Z,8.82
2023-04-15T16:45:58.741Z,5.90
2023-04-15T16:48:26.969Z,9.65
2023-04-15T16:50:53.712Z,4.88
2023-04-15T16:53:20.424Z,4.47
2023-04-15T16:55:47.115Z,3.90
2023-04-15T16:58:13.780Z,4.78
2023-04-15T17:00:41.488Z,5.07
2023-04-15T17:03:08.370Z,7.45
2023-04-15T17:05:36.205Z,6.22
2023-04-15T17:08:02.973Z,4.90
2023-04-15T17:10:31.011Z,4.30
2023-04-15T17:12:57.953Z,4.57
2023-04-15T17:15:24.953Z,7.25
2023-04-15T17:17:52.384Z,4.88
2023-04-15T17:20:19.271Z,7.35
2023-04-15T17:22:45.899Z,4.10
2023-04-15T17:25:13.662Z,6.05
2023-04-15T17:27:40.842Z,6.65
2023-04-15T17:30:08.625Z,8.15
2023-04-15T17:32:35.538Z,5.65
2023-04-15T17:35:05.904Z,7.78
2023-04-15T17:37:33.750Z,9.48
2023-04-15T17:40:00.690Z,9.43
2023-04-15T17:42:27.449Z,11.05
2023-04-15T17:44:54.095Z,10.52
2023-04-15T17:47:20.790Z,6.40
2023-04-15T17:49:47.893Z,8.70
2023-04-15T17:52:14.602Z,11.95
2023-04-15T17:54:41.345Z,10.38
2023-04-15T17:57:09.141Z,9.20
2023-04-15T17:59:35.822Z,12.20
2023-04-15T18:02:02.662Z,9.25
2023-04-15T18:04:29.488Z,11.68
2023-04-15T18:06:56.242Z,9.43
2023-04-15T18:09:25.350Z,11.98
2023-04-15T18:11:51.966Z,10.95
2023-04-15T18:14:32.979Z,8.57
2023-04-15T18:17:04.563Z,12.52
2023-04-15T18:19:31.886Z,7.47
2023-04-15T18:22:00.237Z,9.40
2023-04-15T18:24:27.507Z,7.57
2023-04-15T18:26:54.274Z,11.90
2023-04-15T18:29:21.034Z,15.25
2023-04-15T18:31:47.976Z,10.68
2023-04-15T18:34:14.717Z,11.68
2023-04-15T18:36:41.518Z,11.30
2023-04-15T18:39:08.531Z,11.80
2023-04-15T18:41:35.244Z,20.00
2023-04-15T18:44:02.058Z,14.23
2023-04-15T18:46:29.271Z,9.55
2023-04-15T18:48:55.896Z,12.98
2023-04-15T18:51:22.646Z,12.50
2023-04-15T18:53:49.499Z,16.88
2023-04-15T18:56:16.318Z,14.43
2023-04-15T18:59:18.127Z,10.00
2023-04-15T19:01:32.534Z,11.50
2023-04-15T19:03:59.475Z,12.63
2023-04-15T19:06:27.753Z,13.25
2023-04-15T19:08:55.043Z,14.23
2023-04-15T19:11:22.428Z,10.20
2023-04-15T19:13:49.278Z,14.50
2023-04-15T19:16:16.118Z,12.05
2023-04-15T19:18:44.090Z,9.98
2023-04-15T19:21:13.341Z,10.30
2023-04-15T19:23:43.033Z,11.88
2023-04-15T19:26:10.305Z,14.23
2023-04-15T19:28:37.030Z,15.98
2023-04-15T19:31:03.965Z,12.98
2023-04-15T19:33:33.499Z,12.18
2023-04-15T19:36:05.596Z,14.13
2023-04-15T19:38:34.932Z,14.70
2023-04-15T19:41:01.984Z,11.25
2023-04-15T19:43:29.059Z,10.73
2023-04-15T19:45:56.400Z,15.82
2023-04-15T19:48:24.414Z,11.30
2023-04-15T19:50:51.803Z,10.52
2023-04-15T19:53:18.955Z,13.48
2023-04-15T19:55:47.051Z,11.55
2023-04-15T19:58:14.040Z,12.57
2023-04-15T20:00:40.982Z,12.20
2023-04-15T20:03:07.954Z,9.88
2023-04-15T20:05:37.731Z,13.55
2023-04-15T20:08:07.056Z,13.77
2023-04-15T20:10:33.882Z,15.15
2023-04-15T20:13:00.510Z,15.43
2023-04-15T20:15:27.340Z,11.77
2023-04-15T20:17:58.840Z,14.30
2023-04-15T20:20:25.926Z,14.45
2023-04-15T20:22:53.182Z,12.40
2023-04-15T20:25:21.162Z,11.98
2023-04-15T20:27:47.909Z,12.85
2023-04-15T20:30:14.582Z,9.00
2023-04-15T20:32:41.387Z,12.27
2023-04-15T20:35:08.298Z,12.23
2023-04-15T20:37:36.784Z,12.85
2023-04-15T20:40:03.632Z,15.40
2023-04-15T20:42:34.659Z,14.88
2023-04-15T20:45:06.995Z,13.75
2023-04-15T20:47:33.643Z,15.55
2023-04-15T20:50:00.594Z,18.02
2023-04-15T20:52:27.751Z,14.23
2023-04-15T20:54:54.363Z,18.50
2023-04-15T20:57:21.029Z,14.35
2023-04-15T20:59:49.183Z,17.02
2023-04-15T21:02:16.065Z,13.45
2023-04-15T21:04:42.917Z,15.25
2023-04-15T21:07:10.435Z,15.38
2023-04-15T21:09:43.816Z,19.23
2023-04-15T21:12:11.246Z,15.90
2023-04-15T21:14:50.074Z,17.45
2023-04-15T21:17:18.018Z,15.73
2023-04-15T21:19:44.727Z,20.08
2023-04-15T21:22:11.368Z,18.83
2023-04-15T21:24:38.114Z,17.90
2023-04-15T21:27:04.788Z,18.63
2023-04-15T21:29:32.910Z,18.92
2023-04-15T21:31:59.765Z,20.77
2023-04-15T21:34:27.914Z,19.35
2023-04-15T21:36:54.562Z,21.13
2023-04-15T21:39:22.603Z,23.38
2023-04-15T21:41:49.260Z,23.40
2023-04-15T21:44:16.363Z,16.27
2023-04-15T21:46:46.045Z,18.88
2023-04-15T21:49:13.242Z,22.25
2023-04-15T21:51:39.891Z,19.73
2023-04-15T21:54:06.544Z,19.10
2023-04-15T21:56:38.453Z,21.98
2023-04-15T21:59:05.450Z,20.92
2023-04-15T22:01:32.421Z,20.95
2023-04-15T22:04:00.596Z,26.77
2023-04-15T22:06:27.307Z,29.70
2023-04-15T22:09:09.246Z,32.13
2023-04-15T22:11:37.786Z,23.98
2023-04-15T22:14:05.717Z,25.60
2023-04-15T22:16:32.472Z,24.80
2023-04-15T22:18:59.139Z,25.83
2023-04-15T22:21:26.682Z,25.55
2023-04-15T22:23:53.397Z,27.30
2023-04-15T22:26:40.759Z,27.35
2023-04-15T22:29:07.633Z,27.25
2023-04-15T22:31:34.465Z,29.05
2023-04-15T22:34:01.264Z,25.55
2023-04-15T22:36:28.426Z,27.60
2023-04-15T22:38:55.161Z,28.13
2023-04-15T22:41:23.923Z,22.17
2023-04-15T22:43:50.682Z,28.77
2023-04-15T22:46:17.370Z,23.42
2023-04-15T22:48:44.024Z,26.23
2023-04-15T22:51:10.805Z,25.65
2023-04-15T22:53:37.455Z,28.45
2023-04-15T22:56:04.252Z,28.77
2023-04-15T22:58:32.073Z,25.58
2023-04-15T23:00:59.144Z,25.70
2023-04-15T23:03:25.967Z,24.73
2023-04-15T23:05:52.737Z,28.13
2023-04-15T23:08:19.467Z,26.42
2023-04-15T23:10:47.552Z,26.02
2023-04-15T23:13:14.211Z,25.25
2023-04-15T23:15:41.265Z,27.23
2023-04-15T23:18:08.001Z,32.13
2023-04-15T23:20:34.724Z,31.40
2023-04-15T23:23:01.478Z,29.42
2023-04-15T23:25:28.113Z,28.30
2023-04-15T23:27:55.020Z,32.53
2023-04-15T23:30:21.760Z,29.25
2023-04-15T23:32:48.685Z,32.25
2023-04-15T23:35:16.052Z,35.15
2023-04-15T23:37:42.715Z,26.38
2023-04-15T23:40:09.786Z,30.48
2023-04-15T23:42:36.570Z,30.55
2023-04-15T23:45:03.264Z,28.80
2023-04-15T23:47:29.961Z,33.38
2023-04-15T23:49:56.607Z,32.97
2023-04-15T23:52:23.335Z,28.67
2023-04-15T23:54:49.927Z,34.72
2023-04-15T23:57:16.677Z,29.45
2023-04-15T23:59:43.292Z,33.42
